Terminal Aerodrome Forecast
Issued by NWS

Home | Current Version | Previous Version | Text Only | Print | Product List | Glossary On
Versions: 1 2 3 4 5 6 7 8 9 10 11 12 13 14 15
000
FTAK31 PANC 231733
TAFACD
TAF
PACD 231733Z 2318/2418 16020KT P6SM SCT045 BKN060
      TEMPO 2318/2322 22010KT
     FM240000 15020G28KT 4SM -RA BR SCT008 BKN015 OVC025
     FM241500 18025G38KT P6SM -RA BKN020 BKN050=

USA.gov is the U.S. government's official web portal to all federal, state and local government web resources and services.